PWSweather.com
Personal Weather Stations
Station Observations
ISANTACA4
Capoeiras Weather Station, Florianopolis, SC 88070450

Capoeiras Weather StationFlorianopolis, SC 88070450

Lat: -27.596, Lon: -48.588

Elevation: 133

Station Type: Oregon WMR 928NX

Latest ConditionsUpdated 6:15:00 PM GMT-03:57 Friday, Oct 24, 2014
Currently Today's Max Today's Min Today's Average
Temperature 73.0°F22.8°C 80.2°F26.8°C 70.3°F21.3°C 74.4°F23.6°C
Dew Point 68.3°F20.2°C 69.2°F20.7°C 64.6°F18.1°C 67.0°F19.4°C
Winds 9.0 mph NE14.5 kmh NE 11.0 mph ENE17.7 kmh ENE - 6.8 mph 10.9 kmh
Wind Gusts 20.0 mph32.2 kmh 24.0 mph38.6 kmh - -
Humidity 85% 86% 68% 78%
Pressure 29.94 in1013.9 mb 30.08 in1018.6 mb 29.92 in1013.2 mb -
Hour Temp Dew Point Humidity Winds Wind Gusts Pressure Precip Precip Rate Daily Precip Total
06:15 PM 73.0°F22.8°C 68.3°F20.2°C 85% 9.0 mph NE14.5 kmh NE 20.0 mph32.2 kmh 29.94 in1013.9 mb 0.00 in0.0 mm 0.00 in/hr0.0 mm/hr 0.00 in0.0 mm
06:00 PM 73.2°F22.9°C 68.1°F20.1°C 84% 11.0 mph ENE17.7 kmh ENE 17.0 mph27.4 kmh 29.94 in1013.9 mb 0.00 in0.0 mm 0.00 in/hr0.0 mm/hr 0.00 in0.0 mm
05:45 PM 73.6°F23.1°C 67.7°F19.8°C 82% 11.0 mph ENE17.7 kmh ENE 20.0 mph32.2 kmh 29.93 in1013.5 mb 0.00 in0.0 mm 0.00 in/hr0.0 mm/hr 0.00 in0.0 mm
05:30 PM 74.1°F23.4°C 68.3°F20.2°C 82% 8.0 mph NE12.9 kmh NE 17.0 mph27.4 kmh 29.93 in1013.5 mb 0.00 in0.0 mm 0.00 in/hr0.0 mm/hr 0.00 in0.0 mm
05:15 PM 74.3°F23.5°C 68.1°F20.1°C 81% 10.0 mph ENE16.1 kmh ENE 18.0 mph29.0 kmh 29.93 in1013.5 mb 0.00 in0.0 mm 0.00 in/hr0.0 mm/hr 0.00 in0.0 mm
05:00 PM 74.8°F23.8°C 68.3°F20.2°C 80% 9.0 mph ENE14.5 kmh ENE 18.0 mph29.0 kmh 29.93 in1013.5 mb 0.00 in0.0 mm 0.00 in/hr0.0 mm/hr 0.00 in0.0 mm
04:45 PM 75.6°F24.2°C 68.2°F20.1°C 78% 10.0 mph ENE16.1 kmh ENE 19.0 mph30.6 kmh 29.93 in1013.5 mb 0.00 in0.0 mm 0.00 in/hr0.0 mm/hr 0.00 in0.0 mm
04:30 PM 75.7°F24.3°C 67.2°F19.6°C 75% 10.0 mph ENE16.1 kmh ENE 21.0 mph33.8 kmh 29.93 in1013.5 mb 0.00 in0.0 mm 0.00 in/hr0.0 mm/hr 0.00 in0.0 mm
04:15 PM 76.3°F24.6°C 67.0°F19.4°C 73% 11.0 mph ENE17.7 kmh ENE 17.0 mph27.4 kmh 29.93 in1013.5 mb 0.00 in0.0 mm 0.00 in/hr0.0 mm/hr 0.00 in0.0 mm
04:00 PM 76.6°F24.8°C 67.3°F19.6°C 73% 9.0 mph NE14.5 kmh NE 17.0 mph27.4 kmh 29.92 in1013.2 mb 0.00 in0.0 mm 0.00 in/hr0.0 mm/hr 0.00 in0.0 mm
03:45 PM 77.5°F25.3°C 68.2°F20.1°C 73% 11.0 mph ENE17.7 kmh ENE 21.0 mph33.8 kmh 29.92 in1013.2 mb 0.00 in0.0 mm 0.00 in/hr0.0 mm/hr 0.00 in0.0 mm
03:30 PM 78.6°F25.9°C 68.4°F20.2°C 71% 9.0 mph NE14.5 kmh NE 17.0 mph27.4 kmh 29.93 in1013.5 mb 0.00 in0.0 mm 0.00 in/hr0.0 mm/hr 0.00 in0.0 mm
03:15 PM 78.4°F25.8°C 69.1°F20.6°C 73% 9.0 mph NE14.5 kmh NE 15.0 mph24.1 kmh 29.93 in1013.5 mb 0.00 in0.0 mm 0.00 in/hr0.0 mm/hr 0.00 in0.0 mm
03:00 PM 79.0°F26.1°C 69.2°F20.7°C 72% 9.0 mph NE14.5 kmh NE 17.0 mph27.4 kmh 29.93 in1013.5 mb 0.00 in0.0 mm 0.00 in/hr0.0 mm/hr 0.00 in0.0 mm
02:45 PM 79.3°F26.3°C 69.1°F20.6°C 71% 9.0 mph ENE14.5 kmh ENE 18.0 mph29.0 kmh 29.94 in1013.9 mb 0.00 in0.0 mm 0.00 in/hr0.0 mm/hr 0.00 in0.0 mm
02:30 PM 78.8°F26.0°C 68.6°F20.3°C 71% 10.0 mph NE16.1 kmh NE 21.0 mph33.8 kmh 29.95 in1014.2 mb 0.00 in0.0 mm 0.00 in/hr0.0 mm/hr 0.00 in0.0 mm
02:15 PM 78.8°F26.0°C 68.6°F20.3°C 71% 9.0 mph NE14.5 kmh NE 17.0 mph27.4 kmh 29.96 in1014.6 mb 0.00 in0.0 mm 0.00 in/hr0.0 mm/hr 0.00 in0.0 mm
02:00 PM 78.6°F25.9°C 68.4°F20.2°C 71% 9.0 mph NE14.5 kmh NE 17.0 mph27.4 kmh 29.96 in1014.6 mb 0.00 in0.0 mm 0.00 in/hr0.0 mm/hr 0.00 in0.0 mm
01:45 PM 78.3°F25.7°C 68.5°F20.3°C 72% 10.0 mph NE16.1 kmh NE 21.0 mph33.8 kmh 29.97 in1014.9 mb 0.00 in0.0 mm 0.00 in/hr0.0 mm/hr 0.00 in0.0 mm
01:30 PM 78.8°F26.0°C 68.2°F20.1°C 70% 10.0 mph NE16.1 kmh NE 18.0 mph29.0 kmh 29.98 in1015.2 mb 0.00 in0.0 mm 0.00 in/hr0.0 mm/hr 0.00 in0.0 mm
01:15 PM 79.5°F26.4°C 68.9°F20.5°C 70% 9.0 mph NE14.5 kmh NE 24.0 mph38.6 kmh 29.98 in1015.2 mb 0.00 in0.0 mm 0.00 in/hr0.0 mm/hr 0.00 in0.0 mm
01:00 PM 80.1°F26.7°C 68.5°F20.3°C 68% 9.0 mph NE14.5 kmh NE 18.0 mph29.0 kmh 29.99 in1015.6 mb 0.00 in0.0 mm 0.00 in/hr0.0 mm/hr 0.00 in0.0 mm
12:45 PM 80.2°F26.8°C 68.7°F20.4°C 68% 9.0 mph NE14.5 kmh NE 18.0 mph29.0 kmh 29.99 in1015.6 mb 0.00 in0.0 mm 0.00 in/hr0.0 mm/hr 0.00 in0.0 mm
12:30 PM 80.1°F26.7°C 69.0°F20.6°C 69% 9.0 mph NE14.5 kmh NE 18.0 mph29.0 kmh 30.00 in1015.9 mb 0.00 in0.0 mm 0.00 in/hr0.0 mm/hr 0.00 in0.0 mm
12:15 PM 79.2°F26.2°C 68.9°F20.5°C 71% 11.0 mph NE17.7 kmh NE 20.0 mph32.2 kmh 30.00 in1015.9 mb 0.00 in0.0 mm 0.00 in/hr0.0 mm/hr 0.00 in0.0 mm
12:00 PM 78.4°F25.8°C 68.7°F20.4°C 72% 10.0 mph NE16.1 kmh NE 22.0 mph35.4 kmh 30.02 in1016.6 mb 0.00 in0.0 mm 0.00 in/hr0.0 mm/hr 0.00 in0.0 mm
11:45 AM 77.5°F25.3°C 67.8°F19.9°C 72% 11.0 mph NE17.7 kmh NE 20.0 mph32.2 kmh 30.02 in1016.6 mb 0.00 in0.0 mm 0.00 in/hr0.0 mm/hr 0.00 in0.0 mm
11:30 AM 77.7°F25.4°C 68.0°F20.0°C 72% 10.0 mph NE16.1 kmh NE 15.0 mph24.1 kmh 30.02 in1016.6 mb 0.00 in0.0 mm 0.00 in/hr0.0 mm/hr 0.00 in0.0 mm
11:15 AM 78.3°F25.7°C 67.3°F19.6°C 69% 10.0 mph NE16.1 kmh NE 21.0 mph33.8 kmh 30.03 in1016.9 mb 0.00 in0.0 mm 0.00 in/hr0.0 mm/hr 0.00 in0.0 mm
11:00 AM 79.0°F26.1°C 68.4°F20.2°C 70% 7.0 mph NE11.3 kmh NE 19.0 mph30.6 kmh 30.03 in1016.9 mb 0.00 in0.0 mm 0.00 in/hr0.0 mm/hr 0.00 in0.0 mm
10:45 AM 78.4°F25.8°C 67.0°F19.4°C 68% 7.0 mph NNE11.3 kmh NNE 19.0 mph30.6 kmh 30.04 in1017.3 mb 0.00 in0.0 mm 0.00 in/hr0.0 mm/hr 0.00 in0.0 mm
10:30 AM 78.1°F25.6°C 66.7°F19.3°C 68% 7.0 mph NNE11.3 kmh NNE 18.0 mph29.0 kmh 30.04 in1017.3 mb 0.00 in0.0 mm 0.00 in/hr0.0 mm/hr 0.00 in0.0 mm
10:15 AM 77.5°F25.3°C 67.8°F19.9°C 72% 7.0 mph NE11.3 kmh NE 11.0 mph17.7 kmh 30.05 in1017.6 mb 0.00 in0.0 mm 0.00 in/hr0.0 mm/hr 0.00 in0.0 mm
10:00 AM 78.1°F25.6°C 67.5°F19.7°C 70% 6.0 mph NE9.7 kmh NE 12.0 mph19.3 kmh 30.05 in1017.6 mb 0.00 in0.0 mm 0.00 in/hr0.0 mm/hr 0.00 in0.0 mm
09:45 AM 77.7°F25.4°C 67.2°F19.6°C 70% 8.0 mph NE12.9 kmh NE 16.0 mph25.7 kmh 30.05 in1017.6 mb 0.00 in0.0 mm 0.00 in/hr0.0 mm/hr 0.00 in0.0 mm
09:30 AM 76.8°F24.9°C 67.5°F19.7°C 73% 8.0 mph NE12.9 kmh NE 14.0 mph22.5 kmh 30.05 in1017.6 mb 0.00 in0.0 mm 0.00 in/hr0.0 mm/hr 0.00 in0.0 mm
09:15 AM 76.3°F24.6°C 67.4°F19.7°C 74% 7.0 mph NNE11.3 kmh NNE 16.0 mph25.7 kmh 30.05 in1017.6 mb 0.00 in0.0 mm 0.00 in/hr0.0 mm/hr 0.00 in0.0 mm
09:00 AM 75.9°F24.4°C 67.4°F19.7°C 75% 6.0 mph NE9.7 kmh NE 14.0 mph22.5 kmh 30.05 in1017.6 mb 0.00 in0.0 mm 0.00 in/hr0.0 mm/hr 0.00 in0.0 mm
08:45 AM 75.0°F23.9°C 67.7°F19.8°C 78% 5.0 mph NE8.0 kmh NE 11.0 mph17.7 kmh 30.05 in1017.6 mb 0.00 in0.0 mm 0.00 in/hr0.0 mm/hr 0.00 in0.0 mm
08:30 AM 75.0°F23.9°C 67.3°F19.6°C 77% 5.0 mph NE8.0 kmh NE 10.0 mph16.1 kmh 30.05 in1017.6 mb 0.00 in0.0 mm 0.00 in/hr0.0 mm/hr 0.00 in0.0 mm
08:15 AM 73.4°F23.0°C 66.5°F19.2°C 79% 4.0 mph N6.4 kmh N 10.0 mph16.1 kmh 30.05 in1017.6 mb 0.00 in0.0 mm 0.00 in/hr0.0 mm/hr 0.00 in0.0 mm
08:00 AM 73.0°F22.8°C 66.9°F19.4°C 81% 3.0 mph NE4.8 kmh NE 9.0 mph14.5 kmh 30.05 in1017.6 mb 0.00 in0.0 mm 0.00 in/hr0.0 mm/hr 0.00 in0.0 mm
07:45 AM 72.1°F22.3°C 66.7°F19.3°C 83% 3.0 mph NNE4.8 kmh NNE 9.0 mph14.5 kmh 30.04 in1017.3 mb 0.00 in0.0 mm 0.00 in/hr0.0 mm/hr 0.00 in0.0 mm
07:30 AM 72.1°F22.3°C 66.7°F19.3°C 83% 4.0 mph NNE6.4 kmh NNE 7.0 mph11.3 kmh 30.04 in1017.3 mb 0.00 in0.0 mm 0.00 in/hr0.0 mm/hr 0.00 in0.0 mm
07:15 AM 71.6°F22.0°C 66.8°F19.3°C 85% 3.0 mph N4.8 kmh N 7.0 mph11.3 kmh 30.04 in1017.3 mb 0.00 in0.0 mm 0.00 in/hr0.0 mm/hr 0.00 in0.0 mm
07:00 AM 71.1°F21.7°C 66.3°F19.1°C 85% 5.0 mph N8.0 kmh N 10.0 mph16.1 kmh 30.04 in1017.3 mb 0.00 in0.0 mm 0.00 in/hr0.0 mm/hr 0.00 in0.0 mm
06:45 AM 70.5°F21.4°C 66.1°F18.9°C 86% 3.0 mph NNE4.8 kmh NNE 9.0 mph14.5 kmh 30.04 in1017.3 mb 0.00 in0.0 mm 0.00 in/hr0.0 mm/hr 0.00 in0.0 mm
06:30 AM 70.5°F21.4°C 66.1°F18.9°C 86% 3.0 mph N4.8 kmh N 8.0 mph12.9 kmh 30.03 in1016.9 mb 0.00 in0.0 mm 0.00 in/hr0.0 mm/hr 0.00 in0.0 mm
06:15 AM 70.3°F21.3°C 66.0°F18.9°C 86% 2.0 mph N3.2 kmh N 7.0 mph11.3 kmh 30.03 in1016.9 mb 0.00 in0.0 mm 0.00 in/hr0.0 mm/hr 0.00 in0.0 mm
06:00 AM 70.3°F21.3°C 66.0°F18.9°C 86% 4.0 mph N6.4 kmh N 8.0 mph12.9 kmh 30.03 in1016.9 mb 0.00 in0.0 mm 0.00 in/hr0.0 mm/hr 0.00 in0.0 mm
05:45 AM 70.5°F21.4°C 65.8°F18.8°C 85% 4.0 mph N6.4 kmh N 8.0 mph12.9 kmh 30.03 in1016.9 mb 0.00 in0.0 mm 0.00 in/hr0.0 mm/hr 0.00 in0.0 mm
05:30 AM 70.5°F21.4°C 65.8°F18.8°C 85% 3.0 mph N4.8 kmh N 8.0 mph12.9 kmh 30.02 in1016.6 mb 0.00 in0.0 mm 0.00 in/hr0.0 mm/hr 0.00 in0.0 mm
05:15 AM 70.5°F21.4°C 65.4°F18.6°C 84% 3.0 mph N4.8 kmh N 7.0 mph11.3 kmh 30.01 in1016.3 mb 0.00 in0.0 mm 0.00 in/hr0.0 mm/hr 0.00 in0.0 mm
05:00 AM 70.5°F21.4°C 65.4°F18.6°C 84% 4.0 mph N6.4 kmh N 9.0 mph14.5 kmh 30.01 in1016.3 mb 0.00 in0.0 mm 0.00 in/hr0.0 mm/hr 0.00 in0.0 mm
04:45 AM 70.5°F21.4°C 65.8°F18.8°C 85% 4.0 mph N6.4 kmh N 8.0 mph12.9 kmh 30.00 in1015.9 mb 0.00 in0.0 mm 0.00 in/hr0.0 mm/hr 0.00 in0.0 mm
04:30 AM 70.5°F21.4°C 65.4°F18.6°C 84% 3.0 mph N4.8 kmh N 8.0 mph12.9 kmh 30.00 in1015.9 mb 0.00 in0.0 mm 0.00 in/hr0.0 mm/hr 0.00 in0.0 mm
04:15 AM 70.5°F21.4°C 65.4°F18.6°C 84% 3.0 mph N4.8 kmh N 7.0 mph11.3 kmh 30.00 in1015.9 mb 0.00 in0.0 mm 0.00 in/hr0.0 mm/hr 0.00 in0.0 mm
04:00 AM 70.5°F21.4°C 65.4°F18.6°C 84% 2.0 mph N3.2 kmh N 7.0 mph11.3 kmh 30.01 in1016.3 mb 0.00 in0.0 mm 0.00 in/hr0.0 mm/hr 0.00 in0.0 mm
03:45 AM 70.7°F21.5°C 65.6°F18.7°C 84% 3.0 mph NNE4.8 kmh NNE 7.0 mph11.3 kmh 30.01 in1016.3 mb 0.00 in0.0 mm 0.00 in/hr0.0 mm/hr 0.00 in0.0 mm
03:30 AM 70.9°F21.6°C 65.8°F18.8°C 84% 4.0 mph N6.4 kmh N 9.0 mph14.5 kmh 30.01 in1016.3 mb 0.00 in0.0 mm 0.00 in/hr0.0 mm/hr 0.00 in0.0 mm
03:15 AM 70.9°F21.6°C 65.8°F18.8°C 84% 4.0 mph N6.4 kmh N 8.0 mph12.9 kmh 30.02 in1016.6 mb 0.00 in0.0 mm 0.00 in/hr0.0 mm/hr 0.00 in0.0 mm
03:00 AM 70.9°F21.6°C 65.8°F18.8°C 84% 4.0 mph N6.4 kmh N 9.0 mph14.5 kmh 30.02 in1016.6 mb 0.00 in0.0 mm 0.00 in/hr0.0 mm/hr 0.00 in0.0 mm
02:45 AM 70.9°F21.6°C 65.5°F18.6°C 83% 4.0 mph NNE6.4 kmh NNE 11.0 mph17.7 kmh 30.02 in1016.6 mb 0.00 in0.0 mm 0.00 in/hr0.0 mm/hr 0.00 in0.0 mm
02:30 AM 71.1°F21.7°C 65.6°F18.7°C 83% 3.0 mph NNE4.8 kmh NNE 7.0 mph11.3 kmh 30.02 in1016.6 mb 0.00 in0.0 mm 0.00 in/hr0.0 mm/hr 0.00 in0.0 mm
02:15 AM 71.1°F21.7°C 65.6°F18.7°C 83% 3.0 mph NNE4.8 kmh NNE 8.0 mph12.9 kmh 30.02 in1016.6 mb 0.00 in0.0 mm 0.00 in/hr0.0 mm/hr 0.00 in0.0 mm
02:00 AM 71.1°F21.7°C 65.3°F18.5°C 82% 3.0 mph NNE4.8 kmh NNE 8.0 mph12.9 kmh 30.03 in1016.9 mb 0.00 in0.0 mm 0.00 in/hr0.0 mm/hr 0.00 in0.0 mm
01:45 AM 71.1°F21.7°C 64.6°F18.1°C 80% 5.0 mph NE8.0 kmh NE 9.0 mph14.5 kmh 30.04 in1017.3 mb 0.00 in0.0 mm 0.00 in/hr0.0 mm/hr 0.00 in0.0 mm
01:30 AM 71.1°F21.7°C 65.3°F18.5°C 82% 6.0 mph NE9.7 kmh NE 12.0 mph19.3 kmh 30.04 in1017.3 mb 0.00 in0.0 mm 0.00 in/hr0.0 mm/hr 0.00 in0.0 mm
01:15 AM 71.1°F21.7°C 65.3°F18.5°C 82% 6.0 mph NE9.7 kmh NE 11.0 mph17.7 kmh 30.05 in1017.6 mb 0.00 in0.0 mm 0.00 in/hr0.0 mm/hr 0.00 in0.0 mm
01:00 AM 71.1°F21.7°C 65.3°F18.5°C 82% 8.0 mph NE12.9 kmh NE 14.0 mph22.5 kmh 30.05 in1017.6 mb 0.00 in0.0 mm 0.00 in/hr0.0 mm/hr 0.00 in0.0 mm
12:45 AM 71.1°F21.7°C 65.3°F18.5°C 82% 8.0 mph NE12.9 kmh NE 14.0 mph22.5 kmh 30.07 in1018.3 mb 0.00 in0.0 mm 0.00 in/hr0.0 mm/hr 0.00 in0.0 mm
12:30 AM 71.2°F21.8°C 65.5°F18.6°C 82% 7.0 mph NE11.3 kmh NE 14.0 mph22.5 kmh 30.07 in1018.3 mb 0.00 in0.0 mm 0.00 in/hr0.0 mm/hr 0.00 in0.0 mm
12:15 AM 71.2°F21.8°C 65.5°F18.6°C 82% 10.0 mph NE16.1 kmh NE 14.0 mph22.5 kmh 30.08 in1018.6 mb 0.00 in0.0 mm 0.00 in/hr0.0 mm/hr 0.00 in0.0 mm
12:00 AM 71.2°F21.8°C 65.5°F18.6°C 82% 9.0 mph NE14.5 kmh NE 17.0 mph27.4 kmh 30.08 in1018.6 mb 0.00 in0.0 mm 0.00 in/hr0.0 mm/hr 0.00 in0.0 mm